Time;durP1;ratioP1;P1;durP2;ratioP2;P2;SDS_P1;SDS_P2;PMS_P1;PMS_P2;Temp;Humidity;BMP_temperature;BMP_pressure;BME280_temperature;BME280_humidity;BME280_pressure;Samples;Min_cycle;Max_cycle;Signal;HPM_P1;HPM_P2
2021/09/22 00:01:33;;;;;;;13.20;8.80;;;;;;;;;;5033557;28;20452;-60
2021/09/22 00:04:00;;;;;;;12.50;9.53;;;;;;;;;;5033793;28;20448;-60
2021/09/22 00:06:29;;;;;;;12.53;9.57;;;;;;;;;;5033173;28;20499;-61
2021/09/22 00:08:56;;;;;;;14.77;10.10;;;;;;;;;;5033208;28;20523;-61
2021/09/22 00:11:23;;;;;;;12.63;9.93;;;;;;;;;;5034810;28;20448;-61
2021/09/22 00:13:50;;;;;;;12.17;10.57;;;;;;;;;;5036000;28;20481;-61
2021/09/22 00:16:18;;;;;;;11.60;10.07;;;;;;;;;;5035093;28;20638;-61
2021/09/22 00:18:45;;;;;;;11.60;9.70;;;;;;;;;;5034255;28;20449;-61
2021/09/22 00:21:12;;;;;;;11.80;10.00;;;;;;;;;;5034163;28;20451;-61
2021/09/22 00:23:41;;;;;;;13.53;10.93;;;;;;;;;;5034671;28;20445;-61
2021/09/22 00:26:08;;;;;;;13.10;10.60;;;;;;;;;;5037517;28;21050;-60
2021/09/22 00:28:35;;;;;;;13.23;10.70;;;;;;;;;;5037865;28;20447;-60
2021/09/22 00:31:02;;;;;;;15.43;9.73;;;;;;;;;;5037382;28;20995;-60
2021/09/22 00:33:30;;;;;;;11.47;9.97;;;;;;;;;;5037389;28;20535;-60
2021/09/22 00:35:58;;;;;;;16.40;13.00;;;;;;;;;;5037687;28;20464;-61
2021/09/22 00:38:25;;;;;;;12.20;10.67;;;;;;;;;;5037658;28;20453;-61
2021/09/22 00:40:54;;;;;;;14.37;12.40;;;;;;;;;;5037447;28;20452;-61
2021/09/22 00:43:21;;;;;;;15.30;12.40;;;;;;;;;;5037682;28;20481;-61
2021/09/22 00:45:49;;;;;;;17.13;12.53;;;;;;;;;;5037774;28;20471;-61
2021/09/22 00:48:16;;;;;;;17.60;11.87;;;;;;;;;;5037278;28;20939;-60
2021/09/22 00:50:43;;;;;;;13.23;11.70;;;;;;;;;;5038214;28;20514;-61
2021/09/22 00:53:11;;;;;;;15.90;11.90;;;;;;;;;;5037410;28;20481;-61
2021/09/22 00:55:40;;;;;;;13.23;11.27;;;;;;;;;;5036626;28;20463;-61
2021/09/22 00:58:10;;;;;;;16.00;12.20;;;;;;;;;;5036661;28;20953;-60
2021/09/22 01:00:38;;;;;;;13.37;11.93;;;;;;;;;;5036755;28;20476;-61
2021/09/22 01:03:05;;;;;;;15.87;12.67;;;;;;;;;;5036394;28;20538;-61
2021/09/22 01:05:32;;;;;;;16.47;12.77;;;;;;;;;;5036912;28;20469;-61
2021/09/22 01:08:00;;;;;;;15.10;11.73;;;;;;;;;;5037185;28;20447;-61
2021/09/22 01:10:28;;;;;;;14.47;12.57;;;;;;;;;;5036506;28;20448;-61
2021/09/22 01:12:55;;;;;;;13.57;11.87;;;;;;;;;;5036371;28;20455;-61
2021/09/22 01:15:31;;;;;;;20.83;13.67;;;;;;;;;;5036108;28;20516;-61
2021/09/22 01:17:58;;;;;;;17.77;13.80;;;;;;;;;;5036474;28;20429;-61
2021/09/22 01:20:29;;;;;;;18.40;13.93;;;;;;;;;;5036269;28;20441;-61
2021/09/22 01:22:58;;;;;;;19.13;13.77;;;;;;;;;;5036195;28;20427;-61
2021/09/22 01:25:25;;;;;;;18.07;13.33;;;;;;;;;;5035934;28;20480;-61
2021/09/22 01:27:53;;;;;;;14.93;13.23;;;;;;;;;;5035968;28;20499;-61
2021/09/22 01:30:21;;;;;;;18.50;13.50;;;;;;;;;;5035925;28;20508;-61
2021/09/22 01:32:52;;;;;;;18.40;13.70;;;;;;;;;;5035944;28;20499;-61
2021/09/22 01:35:19;;;;;;;17.77;13.20;;;;;;;;;;5035070;28;20470;-61
2021/09/22 01:37:46;;;;;;;17.47;13.23;;;;;;;;;;5036151;28;20442;-61
2021/09/22 01:40:15;;;;;;;14.80;13.30;;;;;;;;;;5035870;28;20452;-61
2021/09/22 01:42:42;;;;;;;16.90;12.60;;;;;;;;;;5035436;28;20452;-61
2021/09/22 01:45:11;;;;;;;18.83;13.97;;;;;;;;;;5035349;28;20523;-61
2021/09/22 01:47:38;;;;;;;15.20;13.33;;;;;;;;;;5035658;28;20457;-61
2021/09/22 01:50:07;;;;;;;15.27;13.50;;;;;;;;;;5035335;28;20523;-61
2021/09/22 01:52:35;;;;;;;21.30;14.27;;;;;;;;;;5035540;28;20448;-61
2021/09/22 01:55:02;;;;;;;18.83;14.10;;;;;;;;;;5036256;28;20489;-61
2021/09/22 01:57:31;;;;;;;18.60;14.00;;;;;;;;;;5035701;28;20852;-61
2021/09/22 01:59:58;;;;;;;17.83;15.30;;;;;;;;;;5035590;28;20446;-61
2021/09/22 02:02:25;;;;;;;21.37;14.50;;;;;;;;;;5035297;28;20445;-61
2021/09/22 02:04:53;;;;;;;20.30;14.93;;;;;;;;;;5035020;28;20931;-60
2021/09/22 02:07:20;;;;;;;19.47;14.60;;;;;;;;;;5035351;28;20441;-61
2021/09/22 02:09:47;;;;;;;20.57;15.20;;;;;;;;;;5035218;28;20450;-61
2021/09/22 02:12:14;;;;;;;27.70;15.90;;;;;;;;;;5034937;28;20513;-61
2021/09/22 02:14:43;;;;;;;21.00;14.93;;;;;;;;;;5035038;28;20483;-61
2021/09/22 02:17:10;;;;;;;17.27;14.43;;;;;;;;;;5035091;28;20495;-61
2021/09/22 02:19:37;;;;;;;21.47;14.53;;;;;;;;;;5035160;28;20455;-61
2021/09/22 02:22:05;;;;;;;18.40;14.73;;;;;;;;;;5034702;28;20495;-60
2021/09/22 02:24:32;;;;;;;23.23;15.13;;;;;;;;;;5034922;28;20532;-61
2021/09/22 02:26:59;;;;;;;18.00;14.50;;;;;;;;;;5035796;28;20754;-61
2021/09/22 02:29:26;;;;;;;18.10;15.10;;;;;;;;;;5034704;28;20449;-61
2021/09/22 02:31:55;;;;;;;23.10;15.93;;;;;;;;;;5034865;28;20449;-61
2021/09/22 02:34:22;;;;;;;20.20;14.80;;;;;;;;;;5034367;28;20993;-62
2021/09/22 02:36:49;;;;;;;21.43;15.30;;;;;;;;;;5034437;28;20499;-62
2021/09/22 02:39:17;;;;;;;19.73;15.57;;;;;;;;;;5034732;28;20548;-62
2021/09/22 02:41:44;;;;;;;25.00;15.57;;;;;;;;;;5034439;28;20887;-62
2021/09/22 02:44:11;;;;;;;19.80;14.87;;;;;;;;;;5034313;28;20445;-61
2021/09/22 02:46:38;;;;;;;18.23;14.70;;;;;;;;;;5033997;28;20451;-61
2021/09/22 02:49:07;;;;;;;20.63;15.30;;;;;;;;;;5036662;28;20520;-61
2021/09/22 02:51:34;;;;;;;23.60;15.20;;;;;;;;;;5034579;28;20504;-62
2021/09/22 02:54:02;;;;;;;22.30;15.70;;;;;;;;;;5034361;28;20527;-62
2021/09/22 02:56:29;;;;;;;18.03;14.03;;;;;;;;;;5034416;28;20456;-61
2021/09/22 02:58:56;;;;;;;26.00;17.00;;;;;;;;;;5034071;28;20939;-62
2021/09/22 03:01:23;;;;;;;20.17;15.93;;;;;;;;;;5034431;28;20449;-61
2021/09/22 03:03:51;;;;;;;21.30;15.90;;;;;;;;;;5034076;28;20935;-62
2021/09/22 03:06:19;;;;;;;20.47;15.73;;;;;;;;;;5034429;28;20498;-61
2021/09/22 03:08:47;;;;;;;22.07;17.90;;;;;;;;;;5034223;28;20486;-61
2021/09/22 03:11:14;;;;;;;25.33;16.83;;;;;;;;;;5033756;28;20507;-61
2021/09/22 03:13:41;;;;;;;21.97;16.60;;;;;;;;;;5034030;28;20443;-61
2021/09/22 03:16:09;;;;;;;23.83;17.00;;;;;;;;;;5034172;28;20465;-60
2021/09/22 03:18:36;;;;;;;20.90;16.57;;;;;;;;;;5034741;28;20445;-60
2021/09/22 03:21:04;;;;;;;22.30;17.27;;;;;;;;;;5035706;28;20499;-61
2021/09/22 03:23:33;;;;;;;23.70;18.30;;;;;;;;;;5034372;28;20937;-61
2021/09/22 03:26:00;;;;;;;20.90;15.70;;;;;;;;;;5033916;28;21055;-60
2021/09/22 03:28:28;;;;;;;20.33;17.40;;;;;;;;;;5034020;28;20506;-61
2021/09/22 03:30:55;;;;;;;25.13;17.50;;;;;;;;;;5034093;28;20478;-61
2021/09/22 03:33:22;;;;;;;20.93;16.07;;;;;;;;;;5034206;28;20527;-60
2021/09/22 03:35:49;;;;;;;24.90;18.90;;;;;;;;;;5033638;28;20484;-61
2021/09/22 03:38:17;;;;;;;28.80;17.77;;;;;;;;;;5034002;28;20449;-61
2021/09/22 03:40:45;;;;;;;25.30;18.37;;;;;;;;;;5033842;28;20527;-61
2021/09/22 03:43:13;;;;;;;23.90;19.17;;;;;;;;;;5033677;28;20449;-61
2021/09/22 03:45:40;;;;;;;24.13;18.27;;;;;;;;;;5033762;28;20467;-61
2021/09/22 03:48:07;;;;;;;26.00;18.30;;;;;;;;;;5033922;28;20447;-61
2021/09/22 03:50:35;;;;;;;23.60;17.67;;;;;;;;;;5033728;28;20454;-61
2021/09/22 03:53:02;;;;;;;20.03;16.20;;;;;;;;;;5033422;28;20934;-61
2021/09/22 03:55:29;;;;;;;21.33;18.90;;;;;;;;;;5033045;28;20485;-61
2021/09/22 03:57:58;;;;;;;21.27;16.13;;;;;;;;;;5033038;28;20447;-61
2021/09/22 04:00:25;;;;;;;23.57;18.43;;;;;;;;;;5033467;28;20442;-61
2021/09/22 04:02:52;;;;;;;21.23;17.07;;;;;;;;;;5033202;28;20797;-61
2021/09/22 04:08:36;;;;;;;28.33;18.93;;;;;;;;;;5092042;27;20615;-60
2021/09/22 04:11:03;;;;;;;29.40;20.07;;;;;;;;;;5091485;28;20780;-62
2021/09/22 04:13:31;;;;;;;25.07;18.23;;;;;;;;;;5091278;28;20529;-62
2021/09/22 04:15:58;;;;;;;28.23;18.67;;;;;;;;;;5091191;28;20514;-61
2021/09/22 04:18:25;;;;;;;25.70;19.80;;;;;;;;;;5091635;28;20450;-62
2021/09/22 04:20:52;;;;;;;24.70;19.33;;;;;;;;;;5091159;28;20511;-61
2021/09/22 04:23:20;;;;;;;27.90;19.80;;;;;;;;;;5090922;28;20488;-61
2021/09/22 04:25:48;;;;;;;29.77;20.67;;;;;;;;;;5090631;28;21172;-60
2021/09/22 04:28:15;;;;;;;31.17;18.83;;;;;;;;;;5090791;28;20476;-61
2021/09/22 04:30:43;;;;;;;28.03;19.53;;;;;;;;;;5090680;28;20990;-61
2021/09/22 04:33:10;;;;;;;27.90;19.50;;;;;;;;;;5090525;28;20950;-59
2021/09/22 04:35:37;;;;;;;25.40;20.20;;;;;;;;;;5090720;28;20458;-61
2021/09/22 04:38:05;;;;;;;30.20;20.80;;;;;;;;;;5090312;28;20877;-61
2021/09/22 04:40:32;;;;;;;29.87;21.17;;;;;;;;;;5090567;28;20443;-62
2021/09/22 04:43:01;;;;;;;29.00;20.80;;;;;;;;;;5090209;28;20451;-61
2021/09/22 04:45:29;;;;;;;25.30;20.00;;;;;;;;;;5091124;28;20467;-62
2021/09/22 04:47:56;;;;;;;30.47;19.93;;;;;;;;;;5094048;28;20823;-61
2021/09/22 04:50:24;;;;;;;35.43;22.07;;;;;;;;;;5102705;28;20463;-61
2021/09/22 04:52:51;;;;;;;31.90;21.17;;;;;;;;;;5103123;28;20463;-61
2021/09/22 04:55:19;;;;;;;34.80;20.23;;;;;;;;;;5102546;28;20560;-62
2021/09/22 04:57:46;;;;;;;33.57;20.43;;;;;;;;;;5102718;28;20439;-61
2021/09/22 05:00:17;;;;;;;33.53;20.60;;;;;;;;;;5099984;28;20613;-62
2021/09/22 05:02:45;;;;;;;35.03;21.83;;;;;;;;;;5097144;28;20467;-63
2021/09/22 05:05:12;;;;;;;25.70;19.50;;;;;;;;;;5092733;28;20508;-62
2021/09/22 05:07:40;;;;;;;30.03;21.43;;;;;;;;;;5089971;28;21084;-61
2021/09/22 05:10:08;;;;;;;31.10;21.63;;;;;;;;;;5089981;28;20447;-62
2021/09/22 05:12:35;;;;;;;29.00;20.40;;;;;;;;;;5089563;28;20454;-60
2021/09/22 05:15:02;;;;;;;30.10;21.90;;;;;;;;;;5089529;28;20463;-62
2021/09/22 05:17:31;;;;;;;30.03;20.80;;;;;;;;;;5090007;28;20474;-62
2021/09/22 05:19:58;;;;;;;36.80;24.03;;;;;;;;;;5075913;28;20454;-62
2021/09/22 05:22:26;;;;;;;31.47;23.40;;;;;;;;;;5076431;28;20521;-61
2021/09/22 05:24:53;;;;;;;37.07;23.10;;;;;;;;;;5076442;28;20469;-59
2021/09/22 05:27:20;;;;;;;34.13;22.37;;;;;;;;;;5071987;22;20552;-58
2021/09/22 05:29:47;;;;;;;32.00;24.47;;;;;;;;;;5036315;28;20447;-58
2021/09/22 05:32:15;;;;;;;33.70;22.50;;;;;;;;;;5036513;28;20505;-58
2021/09/22 05:34:43;;;;;;;36.23;22.93;;;;;;;;;;5035566;28;20499;-58
2021/09/22 05:37:10;;;;;;;33.17;22.43;;;;;;;;;;5035413;28;20880;-58
2021/09/22 05:39:39;;;;;;;31.73;23.37;;;;;;;;;;5035743;28;20458;-58
2021/09/22 05:42:06;;;;;;;33.80;23.37;;;;;;;;;;5035528;28;20454;-58
2021/09/22 05:44:33;;;;;;;34.47;23.67;;;;;;;;;;5035072;28;21016;-60
2021/09/22 05:47:01;;;;;;;32.37;23.50;;;;;;;;;;5034757;28;20560;-57
2021/09/22 05:49:28;;;;;;;35.00;23.50;;;;;;;;;;5035443;28;20499;-57
2021/09/22 05:51:57;;;;;;;41.17;24.53;;;;;;;;;;5035420;28;20452;-58
2021/09/22 05:54:24;;;;;;;34.37;23.40;;;;;;;;;;5035365;28;20523;-58
2021/09/22 05:56:51;;;;;;;39.00;24.90;;;;;;;;;;5034707;28;20465;-59
2021/09/22 05:59:18;;;;;;;40.40;23.63;;;;;;;;;;5035004;28;20445;-58
2021/09/22 06:01:46;;;;;;;30.97;22.47;;;;;;;;;;5034579;28;20957;-58
2021/09/22 06:04:13;;;;;;;33.37;22.83;;;;;;;;;;5034988;28;20501;-58
2021/09/22 06:06:40;;;;;;;35.77;24.47;;;;;;;;;;5034667;28;20543;-58
2021/09/22 06:09:09;;;;;;;33.03;22.63;;;;;;;;;;5034307;28;20531;-58
2021/09/22 06:11:36;;;;;;;33.53;21.47;;;;;;;;;;5034420;28;20455;-58
2021/09/22 06:14:03;;;;;;;35.10;23.23;;;;;;;;;;5034679;28;20451;-59
2021/09/22 06:16:30;;;;;;;37.67;22.63;;;;;;;;;;5034542;28;20523;-58
2021/09/22 06:18:58;;;;;;;28.20;21.37;;;;;;;;;;5034424;28;20875;-57
2021/09/22 06:21:26;;;;;;;33.97;22.43;;;;;;;;;;5034525;28;20463;-58
2021/09/22 06:23:53;;;;;;;31.77;21.60;;;;;;;;;;5034299;28;20794;-57
2021/09/22 06:26:23;;;;;;;27.53;21.57;;;;;;;;;;5034331;28;20481;-59
2021/09/22 06:28:50;;;;;;;31.40;21.90;;;;;;;;;;5034283;28;20479;-59
2021/09/22 06:31:18;;;;;;;30.57;21.33;;;;;;;;;;5033295;28;20515;-59
2021/09/22 06:33:45;;;;;;;25.00;19.13;;;;;;;;;;5034207;28;20529;-58
2021/09/22 06:36:12;;;;;;;27.33;20.80;;;;;;;;;;5033924;28;20475;-59
2021/09/22 06:38:39;;;;;;;30.70;20.43;;;;;;;;;;5034181;28;20496;-59
2021/09/22 06:41:07;;;;;;;29.80;19.73;;;;;;;;;;5034126;28;20864;-58
2021/09/22 06:43:35;;;;;;;30.73;19.67;;;;;;;;;;5034199;28;20527;-58
2021/09/22 06:46:03;;;;;;;24.40;19.27;;;;;;;;;;5034165;28;20469;-60
2021/09/22 06:48:30;;;;;;;23.40;19.30;;;;;;;;;;5034277;28;20522;-60
2021/09/22 06:50:57;;;;;;;29.10;17.83;;;;;;;;;;5033978;28;20452;-60
2021/09/22 06:53:24;;;;;;;27.43;19.43;;;;;;;;;;5033797;28;21006;-59
2021/09/22 06:55:52;;;;;;;25.00;18.30;;;;;;;;;;5033768;28;20468;-59
2021/09/22 06:58:19;;;;;;;24.97;17.57;;;;;;;;;;5033728;28;20444;-59
2021/09/22 07:00:48;;;;;;;20.47;17.00;;;;;;;;;;5033983;28;20447;-60
2021/09/22 07:03:15;;;;;;;23.00;17.33;;;;;;;;;;5033646;28;20444;-59
2021/09/22 07:05:43;;;;;;;23.10;16.63;;;;;;;;;;5033742;28;20511;-59
2021/09/22 07:08:11;;;;;;;25.33;18.23;;;;;;;;;;5033754;28;20476;-60
2021/09/22 07:10:38;;;;;;;21.30;16.43;;;;;;;;;;5033735;28;20537;-59
2021/09/22 07:13:05;;;;;;;20.27;15.90;;;;;;;;;;5033602;28;20449;-58
2021/09/22 07:15:33;;;;;;;26.93;16.07;;;;;;;;;;5033572;28;20445;-58
2021/09/22 07:18:01;;;;;;;26.13;15.50;;;;;;;;;;5033319;28;20494;-59
2021/09/22 07:20:29;;;;;;;21.73;15.77;;;;;;;;;;5033300;28;20467;-59
2021/09/22 07:22:56;;;;;;;21.37;15.40;;;;;;;;;;5033563;28;20502;-60
2021/09/22 07:25:23;;;;;;;18.50;15.30;;;;;;;;;;5033536;28;20806;-58
2021/09/22 07:27:51;;;;;;;21.50;14.70;;;;;;;;;;5033143;28;20539;-58
2021/09/22 07:30:18;;;;;;;20.57;15.20;;;;;;;;;;5033443;28;20499;-59
2021/09/22 07:32:46;;;;;;;21.00;15.57;;;;;;;;;;5033246;28;20452;-60
2021/09/22 07:35:15;;;;;;;19.53;15.33;;;;;;;;;;5033177;28;20944;-58
2021/09/22 07:37:42;;;;;;;19.80;14.37;;;;;;;;;;5032932;28;21039;-58
2021/09/22 07:40:10;;;;;;;22.60;14.70;;;;;;;;;;5032950;28;20452;-60
2021/09/22 07:42:38;;;;;;;16.67;13.43;;;;;;;;;;5033250;28;20442;-58
2021/09/22 07:45:06;;;;;;;17.43;13.37;;;;;;;;;;5033219;28;20449;-58
2021/09/22 07:47:33;;;;;;;23.77;15.80;;;;;;;;;;5033079;28;20477;-59
2021/09/22 07:50:00;;;;;;;17.20;13.43;;;;;;;;;;5032944;28;20503;-59
2021/09/22 07:52:29;;;;;;;26.33;13.80;;;;;;;;;;5033635;28;20498;-58
2021/09/22 07:54:56;;;;;;;22.50;14.47;;;;;;;;;;5033235;28;20503;-59
2021/09/22 07:57:23;;;;;;;18.03;13.00;;;;;;;;;;5033168;28;20475;-58
2021/09/22 07:59:50;;;;;;;17.00;12.70;;;;;;;;;;5032548;28;20510;-59
2021/09/22 08:02:18;;;;;;;17.60;14.50;;;;;;;;;;5033775;28;20533;-58
2021/09/22 08:04:45;;;;;;;17.30;13.13;;;;;;;;;;5032845;28;20481;-58
2021/09/22 08:07:13;;;;;;;19.20;12.33;;;;;;;;;;5032490;28;20523;-58
2021/09/22 08:09:41;;;;;;;14.70;11.90;;;;;;;;;;5032828;28;20489;-58
2021/09/22 08:12:09;;;;;;;14.80;11.30;;;;;;;;;;5032645;28;20503;-58
2021/09/22 08:14:36;;;;;;;16.23;11.43;;;;;;;;;;5032585;28;21001;-58
2021/09/22 08:17:04;;;;;;;19.57;11.50;;;;;;;;;;5032599;28;20507;-58
2021/09/22 08:19:33;;;;;;;17.40;11.10;;;;;;;;;;5032313;28;20449;-59
2021/09/22 08:22:00;;;;;;;12.70;11.03;;;;;;;;;;5032406;28;20492;-58
2021/09/22 08:24:28;;;;;;;16.43;11.70;;;;;;;;;;5032966;28;20446;-58
2021/09/22 08:26:57;;;;;;;15.07;10.87;;;;;;;;;;5032231;28;20976;-58
2021/09/22 08:29:25;;;;;;;16.87;11.43;;;;;;;;;;5032626;28;20485;-58
2021/09/22 08:31:52;;;;;;;19.87;10.70;;;;;;;;;;5032719;28;20938;-58
2021/09/22 08:34:20;;;;;;;14.43;9.33;;;;;;;;;;5032441;28;21009;-59
2021/09/22 08:36:48;;;;;;;13.10;9.70;;;;;;;;;;5032681;28;20808;-59
2021/09/22 08:39:15;;;;;;;13.87;9.63;;;;;;;;;;5032549;28;20504;-59
2021/09/22 08:41:43;;;;;;;13.70;9.47;;;;;;;;;;5032268;28;20445;-58
2021/09/22 08:44:12;;;;;;;13.97;9.70;;;;;;;;;;5032655;28;20853;-59
2021/09/22 08:46:40;;;;;;;11.97;9.40;;;;;;;;;;5032393;28;20515;-60
2021/09/22 08:49:08;;;;;;;15.03;9.37;;;;;;;;;;5032002;28;20502;-59
2021/09/22 08:51:36;;;;;;;16.17;9.27;;;;;;;;;;5032373;28;21004;-59
2021/09/22 08:54:03;;;;;;;14.17;8.83;;;;;;;;;;5033874;28;21001;-60
2021/09/22 08:56:30;;;;;;;13.10;8.10;;;;;;;;;;5036263;28;20541;-59
2021/09/22 08:58:57;;;;;;;15.83;8.10;;;;;;;;;;5035865;28;20505;-58
2021/09/22 09:01:26;;;;;;;10.87;7.70;;;;;;;;;;5036291;28;20458;-59
2021/09/22 09:03:53;;;;;;;15.83;8.00;;;;;;;;;;5036277;28;20821;-58
2021/09/22 09:06:25;;;;;;;8.97;6.77;;;;;;;;;;5035759;28;20987;-59
2021/09/22 09:08:53;;;;;;;11.67;8.23;;;;;;;;;;5035983;28;20489;-59
2021/09/22 09:11:28;;;;;;;11.50;7.37;;;;;;;;;;5036604;28;20491;-59
2021/09/22 09:13:56;;;;;;;13.50;7.17;;;;;;;;;;5036757;28;20859;-59
2021/09/22 09:16:25;;;;;;;12.40;7.53;;;;;;;;;;5035900;28;20471;-59
2021/09/22 09:18:55;;;;;;;9.73;7.87;;;;;;;;;;5036021;28;20455;-58
2021/09/22 09:21:22;;;;;;;10.77;7.77;;;;;;;;;;5035938;28;20478;-59
2021/09/22 09:23:54;;;;;;;12.93;8.43;;;;;;;;;;5035378;28;20933;-59
2021/09/22 09:26:23;;;;;;;9.60;7.20;;;;;;;;;;5035715;28;20471;-60
2021/09/22 09:28:51;;;;;;;13.17;8.87;;;;;;;;;;5035395;28;20577;-59
2021/09/22 09:31:19;;;;;;;9.97;6.90;;;;;;;;;;5035646;28;20500;-58
2021/09/22 09:33:48;;;;;;;8.30;6.73;;;;;;;;;;5035326;28;20497;-59
2021/09/22 09:36:18;;;;;;;8.07;6.50;;;;;;;;;;5035215;28;20463;-60
2021/09/22 09:38:49;;;;;;;12.83;7.77;;;;;;;;;;5035295;28;20442;-58
2021/09/22 09:41:23;;;;;;;12.20;7.13;;;;;;;;;;5035206;28;20508;-59
2021/09/22 09:43:50;;;;;;;12.03;6.93;;;;;;;;;;5035576;28;20506;-60
2021/09/22 09:46:20;;;;;;;11.00;7.00;;;;;;;;;;5034825;28;20475;-59
2021/09/22 09:48:55;;;;;;;10.60;6.03;;;;;;;;;;5035113;28;20485;-59
2021/09/22 09:51:23;;;;;;;9.83;6.40;;;;;;;;;;5035311;28;20496;-59
2021/09/22 09:53:52;;;;;;;7.57;6.50;;;;;;;;;;5034684;28;20474;-60
2021/09/22 09:56:20;;;;;;;8.53;5.60;;;;;;;;;;5034649;28;20478;-60
2021/09/22 09:58:48;;;;;;;8.87;5.67;;;;;;;;;;5034714;28;20499;-58
2021/09/22 10:01:17;;;;;;;9.93;4.93;;;;;;;;;;5034687;28;20597;-60
2021/09/22 10:03:46;;;;;;;7.40;4.43;;;;;;;;;;5034892;28;20546;-58
2021/09/22 10:06:13;;;;;;;10.00;5.33;;;;;;;;;;5034711;28;20467;-60
2021/09/22 10:08:42;;;;;;;9.80;4.03;;;;;;;;;;5034471;28;20537;-59
2021/09/22 10:11:10;;;;;;;4.30;3.90;;;;;;;;;;5034798;28;20812;-58
2021/09/22 10:13:38;;;;;;;6.90;3.80;;;;;;;;;;5034853;28;20520;-59
2021/09/22 10:16:06;;;;;;;8.23;4.30;;;;;;;;;;5034382;28;20605;-60
2021/09/22 10:18:34;;;;;;;7.27;3.63;;;;;;;;;;5034596;28;20443;-59
2021/09/22 10:21:02;;;;;;;5.20;3.80;;;;;;;;;;5034144;28;20456;-59
2021/09/22 10:23:30;;;;;;;4.70;3.10;;;;;;;;;;5034229;28;20626;-59
2021/09/22 10:25:58;;;;;;;4.00;3.20;;;;;;;;;;5034028;28;21045;-60
2021/09/22 10:28:37;;;;;;;4.70;3.30;;;;;;;;;;5034319;28;20439;-61
2021/09/22 10:31:05;;;;;;;5.17;3.50;;;;;;;;;;5034697;28;20791;-58
2021/09/22 10:33:33;;;;;;;5.87;3.20;;;;;;;;;;5034297;28;20940;-58
2021/09/22 10:36:01;;;;;;;6.20;3.30;;;;;;;;;;5033879;28;20468;-59
2021/09/22 10:38:52;;;;;;;5.70;3.50;;;;;;;;;;5034158;28;20509;-59
2021/09/22 10:41:31;;;;;;;4.23;3.30;;;;;;;;;;5039433;28;20421;-59
2021/09/22 10:43:59;;;;;;;5.17;3.63;;;;;;;;;;5034234;28;20426;-61
2021/09/22 10:46:29;;;;;;;5.23;3.00;;;;;;;;;;5033923;28;20523;-59
2021/09/22 10:49:01;;;;;;;4.40;2.90;;;;;;;;;;5033898;28;20522;-58
2021/09/22 10:51:29;;;;;;;5.83;2.60;;;;;;;;;;5034307;28;20463;-57
2021/09/22 10:54:05;;;;;;;5.13;2.47;;;;;;;;;;5034994;28;20452;-58
2021/09/22 10:56:33;;;;;;;4.97;2.83;;;;;;;;;;5033819;28;20534;-58
2021/09/22 10:59:02;;;;;;;3.37;2.30;;;;;;;;;;5034021;28;20452;-58
2021/09/22 11:01:48;;;;;;;5.10;2.43;;;;;;;;;;5033548;28;20459;-59
2021/09/22 11:04:15;;;;;;;3.20;2.17;;;;;;;;;;5034074;28;20499;-58
2021/09/22 11:07:06;;;;;;;3.97;2.60;;;;;;;;;;5033964;28;20463;-58
2021/09/22 11:09:35;;;;;;;6.77;2.73;;;;;;;;;;5019090;28;20569;-58
2021/09/22 11:12:05;;;;;;;4.07;2.70;;;;;;;;;;5033598;28;20856;-58
2021/09/22 11:14:33;;;;;;;4.83;2.97;;;;;;;;;;5033374;28;20772;-59
2021/09/22 11:17:01;;;;;;;4.53;3.30;;;;;;;;;;5032472;28;20836;-58
2021/09/22 11:19:29;;;;;;;6.97;3.37;;;;;;;;;;5033123;28;20495;-59
2021/09/22 11:21:57;;;;;;;4.40;3.67;;;;;;;;;;5032989;28;20474;-57
2021/09/22 11:24:28;;;;;;;4.70;3.67;;;;;;;;;;5033550;28;20453;-59
2021/09/22 11:26:56;;;;;;;5.23;3.93;;;;;;;;;;5058435;22;20491;-61
2021/09/22 11:29:32;;;;;;;7.37;3.87;;;;;;;;;;5033442;28;20481;-61
2021/09/22 11:32:00;;;;;;;5.30;4.47;;;;;;;;;;5033249;28;20459;-61
2021/09/22 11:34:27;;;;;;;5.80;3.97;;;;;;;;;;5033114;28;20866;-61
2021/09/22 11:37:04;;;;;;;5.47;4.00;;;;;;;;;;5032543;28;20480;-61
2021/09/22 11:39:32;;;;;;;5.20;3.47;;;;;;;;;;5032696;28;20444;-62
2021/09/22 11:41:59;;;;;;;3.50;3.20;;;;;;;;;;5033015;28;20990;-62
2021/09/22 11:44:27;;;;;;;6.50;4.50;;;;;;;;;;5033266;28;20450;-61
2021/09/22 11:46:56;;;;;;;7.80;3.70;;;;;;;;;;5032860;28;20473;-61
2021/09/22 11:49:23;;;;;;;6.50;3.77;;;;;;;;;;5032913;28;20483;-61
2021/09/22 11:52:07;;;;;;;6.07;4.00;;;;;;;;;;5033069;28;20506;-60
2021/09/22 11:54:35;;;;;;;6.47;3.77;;;;;;;;;;5033297;28;20455;-61
2021/09/22 11:57:03;;;;;;;5.33;3.87;;;;;;;;;;5032761;28;21068;-60
2021/09/22 11:59:32;;;;;;;6.90;3.90;;;;;;;;;;5033030;28;20467;-62
2021/09/22 12:02:01;;;;;;;8.03;4.70;;;;;;;;;;5032891;28;20442;-62
2021/09/22 12:04:32;;;;;;;6.17;4.07;;;;;;;;;;5033223;28;20480;-62
2021/09/22 12:06:59;;;;;;;5.40;4.20;;;;;;;;;;5032850;28;20465;-62
2021/09/22 12:09:27;;;;;;;7.60;3.90;;;;;;;;;;5033089;28;20531;-60
2021/09/22 12:12:08;;;;;;;6.23;4.50;;;;;;;;;;5033263;28;20567;-60
2021/09/22 12:14:35;;;;;;;7.73;5.00;;;;;;;;;;5033115;28;20873;-60
2021/09/22 12:17:07;;;;;;;5.10;4.17;;;;;;;;;;5033146;28;20538;-61
2021/09/22 12:19:35;;;;;;;6.37;5.33;;;;;;;;;;5033234;28;20590;-60
2021/09/22 12:22:02;;;;;;;5.60;4.50;;;;;;;;;;5032906;28;20445;-61
2021/09/22 12:24:33;;;;;;;6.57;5.40;;;;;;;;;;5033066;28;20449;-61
2021/09/22 12:27:00;;;;;;;6.03;5.40;;;;;;;;;;5032785;28;20487;-60
2021/09/22 12:29:28;;;;;;;6.63;5.10;;;;;;;;;;5034658;28;20484;-60
2021/09/22 12:31:56;;;;;;;7.37;5.20;;;;;;;;;;5036879;28;20460;-61
2021/09/22 12:34:26;;;;;;;7.77;5.57;;;;;;;;;;5037111;28;20475;-59
2021/09/22 12:36:54;;;;;;;8.37;6.27;;;;;;;;;;5036444;28;20984;-59
2021/09/22 12:39:23;;;;;;;6.23;5.23;;;;;;;;;;5036570;28;20455;-61
2021/09/22 12:42:00;;;;;;;7.40;5.80;;;;;;;;;;5036485;28;20510;-60
2021/09/22 12:44:28;;;;;;;7.23;5.57;;;;;;;;;;5036471;28;20460;-61
2021/09/22 12:46:55;;;;;;;7.33;5.13;;;;;;;;;;5036176;28;20521;-59
2021/09/22 12:49:24;;;;;;;5.93;4.70;;;;;;;;;;5036834;28;20487;-60
2021/09/22 12:51:54;;;;;;;6.83;5.00;;;;;;;;;;5036929;28;20452;-61
2021/09/22 12:54:21;;;;;;;7.20;5.70;;;;;;;;;;5036936;28;20441;-61
2021/09/22 12:56:49;;;;;;;8.10;4.50;;;;;;;;;;5036987;28;20465;-60
2021/09/22 12:59:20;;;;;;;7.10;4.70;;;;;;;;;;5037115;28;20858;-59
2021/09/22 13:01:51;;;;;;;7.87;5.00;;;;;;;;;;5036798;28;20437;-60
2021/09/22 13:04:25;;;;;;;5.63;5.13;;;;;;;;;;5036642;28;20448;-60
2021/09/22 13:06:54;;;;;;;5.83;5.33;;;;;;;;;;5036120;28;20477;-61
2021/09/22 13:09:31;;;;;;;7.57;6.27;;;;;;;;;;5036063;28;21008;-61
2021/09/22 13:11:58;;;;;;;8.70;5.97;;;;;;;;;;5036095;28;20468;-60
2021/09/22 13:14:25;;;;;;;8.80;5.73;;;;;;;;;;5036611;28;20800;-61
2021/09/22 13:16:54;;;;;;;9.13;5.37;;;;;;;;;;5036403;28;20530;-62
2021/09/22 13:19:22;;;;;;;9.13;5.03;;;;;;;;;;5036453;28;20440;-61
2021/09/22 13:21:49;;;;;;;10.23;6.90;;;;;;;;;;5036776;28;20492;-63
2021/09/22 13:24:19;;;;;;;7.83;5.33;;;;;;;;;;5039045;28;20445;-62
2021/09/22 13:26:47;;;;;;;8.07;5.90;;;;;;;;;;5036525;28;20485;-61
2021/09/22 13:29:15;;;;;;;9.83;6.20;;;;;;;;;;5036423;28;20510;-60
2021/09/22 13:31:44;;;;;;;8.93;5.90;;;;;;;;;;5035927;28;20942;-59
2021/09/22 13:34:12;;;;;;;5.87;5.23;;;;;;;;;;5036415;28;20452;-60
2021/09/22 13:36:40;;;;;;;7.70;5.57;;;;;;;;;;5036648;28;20472;-60
2021/09/22 13:39:08;;;;;;;5.77;4.80;;;;;;;;;;5041257;28;20446;-60
2021/09/22 13:41:37;;;;;;;6.70;5.10;;;;;;;;;;5044993;28;20507;-62
2021/09/22 13:44:05;;;;;;;8.77;5.83;;;;;;;;;;5044863;28;20536;-63
2021/09/22 13:46:33;;;;;;;9.77;5.90;;;;;;;;;;5042619;28;20468;-63
2021/09/22 13:49:01;;;;;;;12.77;6.70;;;;;;;;;;5037088;28;20448;-60
2021/09/22 13:51:28;;;;;;;6.43;5.80;;;;;;;;;;5037445;28;20533;-60
2021/09/22 13:53:56;;;;;;;7.50;6.50;;;;;;;;;;5035603;28;20470;-60
2021/09/22 13:56:23;;;;;;;7.77;6.53;;;;;;;;;;5035713;28;21003;-60
2021/09/22 13:58:51;;;;;;;8.23;6.70;;;;;;;;;;5035721;28;20448;-61
2021/09/22 14:01:19;;;;;;;8.90;6.13;;;;;;;;;;5036385;28;20505;-60
2021/09/22 14:03:46;;;;;;;7.00;6.30;;;;;;;;;;5035331;28;20847;-60
2021/09/22 14:06:13;;;;;;;11.67;7.17;;;;;;;;;;5034815;28;20469;-61
2021/09/22 14:08:40;;;;;;;9.47;6.93;;;;;;;;;;5035552;28;20527;-61
2021/09/22 14:11:08;;;;;;;11.50;6.60;;;;;;;;;;5034812;28;20634;-60
2021/09/22 14:13:36;;;;;;;7.60;6.80;;;;;;;;;;5034993;28;20507;-61
2021/09/22 14:16:04;;;;;;;9.73;7.43;;;;;;;;;;5035508;28;20456;-61
2021/09/22 14:18:32;;;;;;;10.17;8.40;;;;;;;;;;5034544;28;21006;-61
2021/09/22 14:20:59;;;;;;;8.13;7.30;;;;;;;;;;5034806;28;20591;-60
2021/09/22 14:23:26;;;;;;;10.07;7.77;;;;;;;;;;5035748;28;20456;-60
2021/09/22 14:25:55;;;;;;;9.40;8.27;;;;;;;;;;5034992;28;20506;-62
2021/09/22 14:28:23;;;;;;;9.83;7.13;;;;;;;;;;5034647;28;20444;-61
2021/09/22 14:30:50;;;;;;;10.10;7.83;;;;;;;;;;5034389;28;20469;-61
2021/09/22 14:33:19;;;;;;;8.97;8.00;;;;;;;;;;5034149;28;20457;-60
2021/09/22 14:35:47;;;;;;;10.10;8.50;;;;;;;;;;5033989;28;20479;-60